createdAt,value
2023-03-17T00:00:21.744Z,92.33
2023-03-17T00:03:26.095Z,92.35
2023-03-17T00:06:28.583Z,92.28
2023-03-17T00:09:22.462Z,92.50
2023-03-17T00:12:15.412Z,92.37
2023-03-17T00:15:09.424Z,92.47
2023-03-17T00:18:01.886Z,92.62
2023-03-17T00:20:53.825Z,92.50
2023-03-17T00:23:50.100Z,92.46
2023-03-17T00:26:43.533Z,92.63
2023-03-17T00:29:35.608Z,92.62
2023-03-17T00:32:27.656Z,92.70
2023-03-17T00:35:25.896Z,92.81
2023-03-17T00:38:20.717Z,93.12
2023-03-17T00:41:13.234Z,93.43
2023-03-17T00:44:05.327Z,93.50
2023-03-17T00:46:59.657Z,93.55
2023-03-17T00:49:52.881Z,93.40
2023-03-17T00:52:46.969Z,93.37
2023-03-17T00:55:38.706Z,93.23
2023-03-17T00:58:33.633Z,93.24
2023-03-17T01:01:25.648Z,93.33
2023-03-17T01:04:18.250Z,93.29
2023-03-17T01:07:12.150Z,93.27
2023-03-17T01:10:11.306Z,93.25
2023-03-17T01:13:05.492Z,93.53
2023-03-17T01:15:59.050Z,93.41
2023-03-17T01:18:51.997Z,93.31
2023-03-17T01:21:44.058Z,93.49
2023-03-17T01:24:37.610Z,93.52
2023-03-17T01:27:34.268Z,93.41
2023-03-17T01:30:30.814Z,93.47
2023-03-17T01:33:23.113Z,93.32
2023-03-17T01:36:15.813Z,93.42
2023-03-17T01:39:07.857Z,93.43
2023-03-17T01:42:01.771Z,93.41
2023-03-17T01:45:05.650Z,93.41
2023-03-17T01:47:57.603Z,93.38
2023-03-17T01:50:49.994Z,93.32
2023-03-17T01:53:42.237Z,93.10
2023-03-17T01:56:36.469Z,93.34
2023-03-17T01:59:33.859Z,93.28
2023-03-17T02:02:36.321Z,93.32
2023-03-17T02:05:32.451Z,93.28
2023-03-17T02:08:26.410Z,93.17
2023-03-17T02:11:21.122Z,93.21
2023-03-17T02:14:13.683Z,93.23
2023-03-17T02:17:06.567Z,93.06
2023-03-17T02:20:14.256Z,93.18
2023-03-17T02:23:07.652Z,93.04
2023-03-17T02:25:59.594Z,93.27
2023-03-17T02:28:52.377Z,93.26
2023-03-17T02:31:45.549Z,92.95
2023-03-17T02:34:37.858Z,93.15
2023-03-17T02:37:30.080Z,93.16
2023-03-17T02:40:24.637Z,93.09
2023-03-17T02:43:16.889Z,93.08
2023-03-17T02:46:08.852Z,93.16
2023-03-17T02:49:02.237Z,93.08
2023-03-17T02:51:54.831Z,93.34
2023-03-17T02:54:46.878Z,93.47
2023-03-17T02:57:38.927Z,93.35
2023-03-17T03:05:00.559Z,93.11
2023-03-17T03:07:28.889Z,93.28
2023-03-17T03:09:56.938Z,93.46
2023-03-17T03:12:25.631Z,93.58
2023-03-17T03:14:53.903Z,93.85
2023-03-17T03:17:22.379Z,93.65
2023-03-17T03:19:50.514Z,93.58
2023-03-17T03:22:18.496Z,93.28
2023-03-17T03:24:46.986Z,93.16
2023-03-17T03:27:15.094Z,93.08
2023-03-17T03:29:43.102Z,93.07
2023-03-17T03:32:11.282Z,92.91
2023-03-17T03:34:39.331Z,92.87
2023-03-17T03:37:08.311Z,92.98
2023-03-17T03:39:37.524Z,92.84
2023-03-17T03:42:07.124Z,92.70
2023-03-17T03:44:35.460Z,92.48
2023-03-17T03:47:03.557Z,92.69
2023-03-17T03:49:31.704Z,92.73
2023-03-17T03:51:59.765Z,92.67
2023-03-17T03:54:27.940Z,92.91
2023-03-17T03:56:55.916Z,92.89
2023-03-17T03:59:24.007Z,93.00
2023-03-17T04:01:52.090Z,92.98
2023-03-17T04:04:20.328Z,92.97
2023-03-17T04:06:48.586Z,92.95
2023-03-17T04:09:16.653Z,92.99
2023-03-17T04:11:44.720Z,93.04
2023-03-17T04:14:12.767Z,93.20
2023-03-17T04:16:43.412Z,93.27
2023-03-17T04:19:11.836Z,93.21
2023-03-17T04:21:40.291Z,93.18
2023-03-17T04:24:09.784Z,93.11
2023-03-17T04:26:37.856Z,92.88
2023-03-17T04:29:08.162Z,92.69
2023-03-17T04:31:37.813Z,92.98
2023-03-17T04:34:05.712Z,92.98
2023-03-17T04:36:33.739Z,92.87
2023-03-17T04:39:02.098Z,93.00
2023-03-17T04:41:30.104Z,93.11
2023-03-17T04:43:58.097Z,93.09
2023-03-17T04:46:26.440Z,93.14
2023-03-17T04:48:54.847Z,93.29
2023-03-17T04:51:22.887Z,93.29
2023-03-17T04:53:51.578Z,93.25
2023-03-17T04:56:19.618Z,93.33
2023-03-17T04:58:48.473Z,93.29
2023-03-17T05:01:16.605Z,93.22
2023-03-17T05:03:45.477Z,93.31
2023-03-17T05:06:13.550Z,93.18
2023-03-17T05:08:43.781Z,93.41
2023-03-17T05:11:12.913Z,93.61
2023-03-17T05:13:41.279Z,93.76
2023-03-17T05:16:10.523Z,93.86
2023-03-17T05:18:38.658Z,93.76
2023-03-17T05:21:07.816Z,93.67
2023-03-17T05:23:36.114Z,93.61
2023-03-17T05:26:05.130Z,93.75
2023-03-17T05:28:33.080Z,93.82
2023-03-17T05:31:01.062Z,94.00
2023-03-17T05:33:29.016Z,94.06
2023-03-17T05:35:57.501Z,93.88
2023-03-17T05:38:25.465Z,93.67
2023-03-17T05:40:53.717Z,93.48
2023-03-17T05:43:22.383Z,93.21
2023-03-17T05:45:50.793Z,93.10
2023-03-17T05:48:19.042Z,93.10
2023-03-17T05:50:47.357Z,92.84
2023-03-17T05:53:16.217Z,92.81
2023-03-17T05:55:44.821Z,92.68
2023-03-17T05:58:12.922Z,92.83
2023-03-17T06:00:40.911Z,93.16
2023-03-17T06:03:09.029Z,93.59
2023-03-17T06:05:37.620Z,93.42
2023-03-17T06:08:05.797Z,93.51
2023-03-17T06:10:33.883Z,93.63
2023-03-17T06:13:03.981Z,93.64
2023-03-17T06:15:33.974Z,92.80
2023-03-17T06:18:05.353Z,92.53
2023-03-17T06:20:34.172Z,92.64
2023-03-17T06:23:05.318Z,92.82
2023-03-17T06:25:35.549Z,92.94
2023-03-17T06:28:08.882Z,93.01
2023-03-17T06:30:40.413Z,92.83
2023-03-17T06:33:08.863Z,92.05
2023-03-17T06:35:38.257Z,91.23
2023-03-17T06:38:07.288Z,90.59
2023-03-17T06:40:35.790Z,90.14
2023-03-17T06:43:04.442Z,89.86
2023-03-17T06:45:33.489Z,89.42
2023-03-17T06:48:02.371Z,89.31
2023-03-17T06:50:30.530Z,89.78
2023-03-17T06:52:58.538Z,89.93
2023-03-17T06:55:27.535Z,89.88
2023-03-17T06:57:55.893Z,89.47
2023-03-17T07:00:23.984Z,89.38
2023-03-17T07:02:52.852Z,89.17
2023-03-17T07:05:20.775Z,88.73
2023-03-17T07:07:49.490Z,88.54
2023-03-17T07:10:18.266Z,88.53
2023-03-17T07:12:46.297Z,88.32
2023-03-17T07:15:15.584Z,87.62
2023-03-17T07:17:44.374Z,87.43
2023-03-17T07:20:14.048Z,86.55
2023-03-17T07:22:42.427Z,85.37
2023-03-17T07:25:12.004Z,85.61
2023-03-17T07:27:40.987Z,85.60
2023-03-17T07:30:11.590Z,85.07
2023-03-17T07:32:39.575Z,84.66
2023-03-17T07:35:08.408Z,83.54
2023-03-17T07:37:37.019Z,80.60
2023-03-17T07:40:06.621Z,81.05
2023-03-17T07:42:35.440Z,80.28
2023-03-17T07:45:06.054Z,78.47
2023-03-17T07:47:34.059Z,78.41
2023-03-17T07:50:02.330Z,78.48
2023-03-17T07:52:30.689Z,78.75
2023-03-17T07:54:58.843Z,77.96
2023-03-17T07:57:27.608Z,77.32
2023-03-17T07:59:56.095Z,77.13
2023-03-17T08:02:24.392Z,76.15
2023-03-17T08:04:54.236Z,77.35
2023-03-17T08:07:22.433Z,75.83
2023-03-17T08:09:51.274Z,73.92
2023-03-17T08:12:20.204Z,75.17
2023-03-17T08:14:48.141Z,74.85
2023-03-17T08:17:17.436Z,74.75
2023-03-17T08:19:45.724Z,74.73
2023-03-17T08:22:13.777Z,75.17
2023-03-17T08:24:43.146Z,73.43
2023-03-17T08:27:11.537Z,73.45
2023-03-17T08:29:39.840Z,71.81
2023-03-17T08:32:08.778Z,71.33
2023-03-17T08:34:36.899Z,67.11
2023-03-17T08:37:04.913Z,67.55
2023-03-17T08:39:33.950Z,67.23
2023-03-17T08:42:03.691Z,68.12
2023-03-17T08:44:31.999Z,67.54
2023-03-17T08:46:59.990Z,64.51
2023-03-17T08:49:28.606Z,65.03
2023-03-17T08:51:56.865Z,67.37
2023-03-17T08:54:25.085Z,67.79
2023-03-17T08:56:53.850Z,68.10
2023-03-17T08:59:22.112Z,67.64
2023-03-17T09:01:50.715Z,67.03
2023-03-17T09:04:19.202Z,66.40
2023-03-17T09:07:02.213Z,64.96
2023-03-17T09:09:31.435Z,65.27
2023-03-17T09:11:59.598Z,64.38
2023-03-17T09:14:29.571Z,62.69
2023-03-17T09:16:58.124Z,62.38
2023-03-17T09:19:26.727Z,63.95
2023-03-17T09:21:57.244Z,63.34
2023-03-17T09:24:26.166Z,63.79
2023-03-17T09:26:56.742Z,63.23
2023-03-17T09:29:27.507Z,60.69
2023-03-17T09:31:59.578Z,60.59
2023-03-17T09:34:28.902Z,61.12
2023-03-17T09:36:59.968Z,61.49
2023-03-17T09:39:29.367Z,59.74
2023-03-17T09:42:04.402Z,60.59
2023-03-17T09:44:55.951Z,59.70
2023-03-17T09:47:50.996Z,60.25
2023-03-17T09:50:38.465Z,60.21
2023-03-17T09:53:16.989Z,56.86
2023-03-17T09:55:52.842Z,57.00
2023-03-17T09:58:29.591Z,56.15
2023-03-17T10:01:01.999Z,56.71
2023-03-17T10:03:31.049Z,57.24
2023-03-17T10:06:28.459Z,57.62
2023-03-17T10:09:26.147Z,57.97
2023-03-17T10:12:04.794Z,53.50
2023-03-17T10:14:33.699Z,54.63
2023-03-17T10:17:13.749Z,56.38
2023-03-17T10:20:03.121Z,56.78
2023-03-17T10:22:44.680Z,57.54
2023-03-17T10:25:20.033Z,55.67
2023-03-17T10:28:09.178Z,55.95
2023-03-17T10:30:39.098Z,56.79
2023-03-17T10:33:12.626Z,54.84
2023-03-17T10:35:41.410Z,55.32
2023-03-17T10:38:24.068Z,52.35
2023-03-17T10:41:02.501Z,49.64
2023-03-17T10:43:38.765Z,51.01
2023-03-17T10:46:17.308Z,53.35
2023-03-17T10:48:52.933Z,53.69
2023-03-17T10:51:30.688Z,52.84
2023-03-17T10:54:09.586Z,52.64
2023-03-17T10:56:42.267Z,53.82
2023-03-17T10:59:28.356Z,54.13
2023-03-17T11:02:00.252Z,54.54
2023-03-17T11:04:36.381Z,51.16
2023-03-17T11:07:19.620Z,49.53
2023-03-17T11:09:55.078Z,50.85
2023-03-17T11:12:36.660Z,51.60
2023-03-17T11:15:12.064Z,52.32
2023-03-17T11:17:46.175Z,50.66
2023-03-17T11:20:46.317Z,50.69
2023-03-17T11:23:42.557Z,48.37
2023-03-17T11:26:29.766Z,48.74
2023-03-17T11:29:00.565Z,47.45
2023-03-17T11:31:59.528Z,44.61
2023-03-17T11:34:39.844Z,45.26
2023-03-17T11:37:36.176Z,46.58
2023-03-17T11:40:29.446Z,48.62
2023-03-17T11:43:35.475Z,48.61
2023-03-17T11:46:13.357Z,46.98
2023-03-17T11:48:41.562Z,46.06
2023-03-17T11:51:36.137Z,42.98
2023-03-17T11:54:17.383Z,43.84
2023-03-17T11:56:54.223Z,43.82
2023-03-17T11:59:28.438Z,42.34
2023-03-17T12:02:15.732Z,38.77
2023-03-17T12:04:53.720Z,38.40
2023-03-17T12:07:26.352Z,39.89
2023-03-17T12:10:11.042Z,38.91
2023-03-17T12:12:44.728Z,38.37
2023-03-17T12:15:38.462Z,38.79
2023-03-17T12:18:25.265Z,38.47
2023-03-17T12:20:55.697Z,39.04
2023-03-17T12:23:48.222Z,39.56
2023-03-17T12:26:21.408Z,39.53
2023-03-17T12:28:57.437Z,38.90
2023-03-17T12:31:36.986Z,38.27
2023-03-17T12:34:17.063Z,38.24
2023-03-17T12:36:45.375Z,36.39
2023-03-17T12:39:19.973Z,37.06
2023-03-17T12:42:02.762Z,37.63
2023-03-17T12:45:05.043Z,38.52
2023-03-17T12:47:57.505Z,38.89
2023-03-17T12:50:34.458Z,38.34
2023-03-17T12:53:26.720Z,37.97
2023-03-17T12:55:58.450Z,39.01
2023-03-17T12:58:38.936Z,40.12
2023-03-17T13:01:32.153Z,38.70
2023-03-17T13:04:27.357Z,38.63
2023-03-17T13:07:09.277Z,37.85
2023-03-17T13:09:57.491Z,37.06
2023-03-17T13:12:44.829Z,36.64
2023-03-17T13:15:35.014Z,36.12
2023-03-17T13:18:15.455Z,35.31
2023-03-17T13:21:12.198Z,37.11
2023-03-17T13:23:46.088Z,36.21
2023-03-17T13:26:19.625Z,35.78
2023-03-17T13:28:51.032Z,36.87
2023-03-17T13:31:28.588Z,37.65
2023-03-17T13:34:02.731Z,36.78
2023-03-17T13:36:46.812Z,36.49
2023-03-17T13:39:27.220Z,36.26
2023-03-17T13:42:18.764Z,36.59
2023-03-17T13:45:08.542Z,36.63
2023-03-17T13:47:42.759Z,36.32
2023-03-17T13:50:17.439Z,37.19
2023-03-17T13:53:02.564Z,38.09
2023-03-17T13:55:35.048Z,36.46
2023-03-17T13:58:09.123Z,35.99
2023-03-17T14:00:46.876Z,36.89
2023-03-17T14:03:29.275Z,35.60
2023-03-17T14:06:01.379Z,34.48
2023-03-17T14:08:36.268Z,35.77
2023-03-17T14:11:09.072Z,36.51
2023-03-17T14:13:37.045Z,37.70
2023-03-17T14:16:26.308Z,36.87
2023-03-17T14:19:00.717Z,36.90
2023-03-17T14:21:33.369Z,35.73
2023-03-17T14:24:04.388Z,36.84
2023-03-17T14:26:32.887Z,37.26
2023-03-17T14:29:04.911Z,38.01
2023-03-17T14:31:33.449Z,37.46
2023-03-17T14:34:01.715Z,36.75
2023-03-17T14:36:33.749Z,36.83
2023-03-17T14:39:01.837Z,37.46
2023-03-17T14:41:31.251Z,38.19
2023-03-17T14:44:01.681Z,37.77
2023-03-17T14:46:38.765Z,36.82
2023-03-17T14:49:20.002Z,36.67
2023-03-17T14:51:51.325Z,36.25
2023-03-17T14:54:27.312Z,36.87
2023-03-17T14:57:02.242Z,36.58
2023-03-17T14:59:33.306Z,36.47
2023-03-17T15:02:15.817Z,37.58
2023-03-17T15:04:53.753Z,38.08
2023-03-17T15:07:40.893Z,37.83
2023-03-17T15:10:19.378Z,38.06
2023-03-17T15:12:48.458Z,37.61
2023-03-17T15:15:29.579Z,38.70
2023-03-17T15:18:01.534Z,38.92
2023-03-17T15:20:33.884Z,38.48
2023-03-17T15:23:23.051Z,38.65
2023-03-17T15:25:55.950Z,38.88
2023-03-17T15:28:33.265Z,38.39
2023-03-17T15:31:13.177Z,38.44
2023-03-17T15:33:42.588Z,38.55
2023-03-17T15:36:31.811Z,38.42
2023-03-17T15:39:02.645Z,38.94
2023-03-17T15:41:30.786Z,39.07
2023-03-17T15:43:58.826Z,38.90
2023-03-17T15:46:31.081Z,38.18
2023-03-17T15:48:59.851Z,38.03
2023-03-17T15:51:27.956Z,39.05
2023-03-17T15:53:57.112Z,39.38
2023-03-17T15:56:26.103Z,39.66
2023-03-17T15:58:54.060Z,39.74
2023-03-17T16:01:22.086Z,39.85
2023-03-17T16:03:50.209Z,40.05
2023-03-17T16:06:22.101Z,40.05
2023-03-17T16:08:51.734Z,40.41
2023-03-17T16:11:28.127Z,40.96
2023-03-17T16:14:00.475Z,41.64
2023-03-17T16:16:37.882Z,42.09
2023-03-17T16:19:10.369Z,42.51
2023-03-17T16:21:38.441Z,43.05
2023-03-17T16:24:06.784Z,43.43
2023-03-17T16:26:34.754Z,43.83
2023-03-17T16:29:07.106Z,44.23
2023-03-17T16:31:36.791Z,44.31
2023-03-17T16:34:16.647Z,44.34
2023-03-17T16:36:45.421Z,44.70
2023-03-17T16:39:18.717Z,45.21
2023-03-17T16:41:48.684Z,45.29
2023-03-17T16:44:18.822Z,45.54
2023-03-17T16:46:47.817Z,45.99
2023-03-17T16:49:18.816Z,46.29
2023-03-17T16:51:49.378Z,46.64
2023-03-17T16:54:18.795Z,46.92
2023-03-17T16:56:47.160Z,46.57
2023-03-17T16:59:21.201Z,46.46
2023-03-17T17:01:49.356Z,46.36
2023-03-17T17:04:17.422Z,46.24
2023-03-17T17:06:45.775Z,46.19
2023-03-17T17:09:13.769Z,46.27
2023-03-17T17:11:41.960Z,46.63
2023-03-17T17:14:10.044Z,46.70
2023-03-17T17:16:42.077Z,46.71
2023-03-17T17:19:16.707Z,46.67
2023-03-17T17:21:45.008Z,46.72
2023-03-17T17:24:13.944Z,46.79
2023-03-17T17:26:42.037Z,46.80
2023-03-17T17:29:10.005Z,47.12
2023-03-17T17:31:38.663Z,47.29
2023-03-17T17:34:06.716Z,47.47
2023-03-17T17:36:34.821Z,47.48
2023-03-17T17:39:03.346Z,47.77
2023-03-17T17:41:32.621Z,47.80
2023-03-17T17:44:00.681Z,47.46
2023-03-17T17:46:28.747Z,47.46
2023-03-17T17:48:57.456Z,47.40
2023-03-17T17:51:25.622Z,47.66
2023-03-17T17:53:53.596Z,47.73
2023-03-17T17:56:21.635Z,47.82
2023-03-17T17:58:50.019Z,47.68
2023-03-17T18:01:21.977Z,47.85
2023-03-17T18:03:50.547Z,47.90
2023-03-17T18:06:19.122Z,47.89
2023-03-17T18:08:47.185Z,47.83
2023-03-17T18:11:15.206Z,47.90
2023-03-17T18:13:43.366Z,47.96
2023-03-17T18:16:15.683Z,47.87
2023-03-17T18:18:45.757Z,47.96
2023-03-17T18:21:13.904Z,48.16
2023-03-17T18:23:49.572Z,48.55
2023-03-17T18:26:18.411Z,48.68
2023-03-17T18:28:47.822Z,48.85
2023-03-17T18:31:23.733Z,49.60
2023-03-17T18:33:56.553Z,49.79
2023-03-17T18:36:27.359Z,49.91
2023-03-17T18:38:56.291Z,50.17
2023-03-17T18:41:24.690Z,50.35
2023-03-17T18:43:52.646Z,50.24
2023-03-17T18:46:20.650Z,50.25
2023-03-17T18:48:48.579Z,50.29
2023-03-17T18:51:16.909Z,50.23
2023-03-17T18:53:44.890Z,50.36
2023-03-17T18:56:13.463Z,50.35
2023-03-17T18:58:41.731Z,50.52
2023-03-17T19:01:09.783Z,50.48
2023-03-17T19:03:37.986Z,50.48
2023-03-17T19:06:12.759Z,50.69
2023-03-17T19:08:41.435Z,50.94
2023-03-17T19:11:11.342Z,50.94
2023-03-17T19:13:40.419Z,51.31
2023-03-17T19:16:09.385Z,51.64
2023-03-17T19:18:40.823Z,51.56
2023-03-17T19:21:11.539Z,51.52
2023-03-17T19:23:41.333Z,51.43
2023-03-17T19:26:10.481Z,51.30
2023-03-17T19:28:38.711Z,51.14
2023-03-17T19:31:07.487Z,51.36
2023-03-17T19:33:36.186Z,51.48
2023-03-17T19:36:11.626Z,51.21
2023-03-17T19:38:40.567Z,51.06
2023-03-17T19:41:09.585Z,51.01
2023-03-17T19:43:41.143Z,50.89
2023-03-17T19:46:11.517Z,50.66
2023-03-17T19:48:40.699Z,50.64
2023-03-17T19:51:09.452Z,50.49
2023-03-17T19:53:38.010Z,50.67
2023-03-17T19:56:07.223Z,50.64
2023-03-17T19:58:35.290Z,50.93
2023-03-17T20:01:07.655Z,50.91
2023-03-17T20:03:37.996Z,51.06
2023-03-17T20:06:06.583Z,51.22
2023-03-17T20:08:36.314Z,51.27
2023-03-17T20:11:06.044Z,51.45
2023-03-17T20:13:35.768Z,51.62
2023-03-17T20:16:04.760Z,51.83
2023-03-17T20:18:33.101Z,51.96
2023-03-17T20:21:05.327Z,52.03
2023-03-17T20:23:35.573Z,52.18
2023-03-17T20:26:04.276Z,52.18
2023-03-17T20:28:32.584Z,52.21
2023-03-17T20:31:04.533Z,52.53
2023-03-17T20:33:33.597Z,52.75
2023-03-17T20:36:03.412Z,52.91
2023-03-17T20:38:36.997Z,52.85
2023-03-17T20:41:13.786Z,53.08
2023-03-17T20:43:42.161Z,53.14
2023-03-17T20:46:19.267Z,53.36
2023-03-17T20:48:52.195Z,53.51
2023-03-17T20:51:20.370Z,53.77
2023-03-17T20:53:49.367Z,53.90
2023-03-17T20:56:23.627Z,54.01
2023-03-17T20:58:56.944Z,54.00
2023-03-17T21:01:26.966Z,54.22
2023-03-17T21:03:55.224Z,54.51
2023-03-17T21:06:26.135Z,54.60
2023-03-17T21:08:56.188Z,54.78
2023-03-17T21:11:26.853Z,55.09
2023-03-17T21:13:57.002Z,55.35
2023-03-17T21:16:28.629Z,55.80
2023-03-17T21:18:57.862Z,56.00
2023-03-17T21:21:27.076Z,56.32
2023-03-17T21:23:56.974Z,56.44
2023-03-17T21:26:25.577Z,56.79
2023-03-17T21:28:59.521Z,57.12
2023-03-17T21:31:28.024Z,57.16
2023-03-17T21:33:57.859Z,57.26
2023-03-17T21:36:27.520Z,57.27
2023-03-17T21:38:55.998Z,57.44
2023-03-17T21:41:32.217Z,57.53
2023-03-17T21:44:02.507Z,57.90
2023-03-17T21:46:31.739Z,57.88
2023-03-17T21:49:01.403Z,58.06
2023-03-17T21:51:30.174Z,58.42
2023-03-17T21:53:58.647Z,58.73
2023-03-17T21:56:27.452Z,58.61
2023-03-17T21:58:56.431Z,58.64
2023-03-17T22:01:24.631Z,58.56
2023-03-17T22:03:52.741Z,58.72
2023-03-17T22:06:21.718Z,58.86
2023-03-17T22:08:50.640Z,58.75
2023-03-17T22:11:19.917Z,59.21
2023-03-17T22:13:48.855Z,59.28
2023-03-17T22:16:18.633Z,59.44
2023-03-17T22:18:47.734Z,59.39
2023-03-17T22:21:15.763Z,59.66
2023-03-17T22:23:44.453Z,59.80
2023-03-17T22:26:15.171Z,59.83
2023-03-17T22:28:45.357Z,60.00
2023-03-17T22:31:18.525Z,60.18
2023-03-17T22:33:48.964Z,60.25
2023-03-17T22:36:17.888Z,60.16
2023-03-17T22:38:46.883Z,60.17
2023-03-17T22:41:18.678Z,60.40
2023-03-17T22:43:47.483Z,60.39
2023-03-17T22:46:16.484Z,60.50
2023-03-17T22:48:46.236Z,60.50
2023-03-17T22:51:17.623Z,60.42
2023-03-17T22:53:46.705Z,62.04
2023-03-17T22:56:16.818Z,63.59
2023-03-17T22:58:45.982Z,63.91
2023-03-17T23:01:16.288Z,64.01
2023-03-17T23:03:46.152Z,63.85
2023-03-17T23:06:14.904Z,63.95
2023-03-17T23:08:44.215Z,63.86
2023-03-17T23:11:19.792Z,64.34
2023-03-17T23:13:49.353Z,64.38
2023-03-17T23:16:17.507Z,64.31
2023-03-17T23:18:46.819Z,64.34
2023-03-17T23:21:35.933Z,64.95
2023-03-17T23:24:05.740Z,64.90
2023-03-17T23:26:36.186Z,64.82
2023-03-17T23:29:07.216Z,64.73
2023-03-17T23:31:36.977Z,64.65
2023-03-17T23:34:06.727Z,64.54
2023-03-17T23:36:38.382Z,64.73
2023-03-17T23:39:08.390Z,64.75
2023-03-17T23:41:37.383Z,64.82
2023-03-17T23:44:05.569Z,64.77
2023-03-17T23:46:34.452Z,64.82
2023-03-17T23:49:04.368Z,64.69
2023-03-17T23:51:33.491Z,64.72
2023-03-17T23:54:01.873Z,64.71
2023-03-17T23:56:30.808Z,64.98
2023-03-17T23:58:59.084Z,64.99
